createdAt,value
2022-10-17T00:02:02.000Z,283.9
2022-10-17T00:03:29.000Z,283.9
2022-10-17T00:05:35.000Z,283.96
2022-10-17T00:07:01.000Z,284.02
2022-10-17T00:09:07.000Z,284.15
2022-10-17T00:10:34.000Z,284.09
2022-10-17T00:12:40.000Z,283.96
2022-10-17T00:14:06.000Z,284.02
2022-10-17T00:16:12.000Z,283.96
2022-10-17T00:17:39.000Z,283.96
2022-10-17T00:19:45.000Z,283.96
2022-10-17T00:21:12.000Z,283.96
2022-10-17T00:23:18.000Z,284.02
2022-10-17T00:24:44.000Z,284.02
2022-10-17T00:26:50.000Z,284.09
2022-10-17T00:29:41.000Z,284.02
2022-10-17T00:31:08.000Z,284.02
2022-10-17T00:33:14.000Z,283.9
2022-10-17T00:34:41.000Z,283.84
2022-10-17T00:36:47.000Z,283.77
2022-10-17T00:38:13.000Z,283.84
2022-10-17T00:40:19.000Z,283.9
2022-10-17T00:41:46.000Z,283.9
2022-10-17T00:43:52.000Z,284.02
2022-10-17T00:45:18.000Z,283.96
2022-10-17T00:47:25.000Z,283.84
2022-10-17T00:48:51.000Z,283.84
2022-10-17T00:50:57.000Z,283.84
2022-10-17T00:52:24.000Z,283.9
2022-10-17T00:54:31.000Z,283.9
2022-10-17T00:55:57.000Z,283.9
2022-10-17T00:58:03.000Z,283.9
2022-10-17T00:59:30.000Z,283.9
2022-10-17T01:01:36.000Z,283.84
2022-10-17T01:03:02.000Z,283.9
2022-10-17T01:05:08.000Z,283.77
2022-10-17T01:08:00.000Z,283.71
2022-10-17T01:09:26.000Z,283.65
2022-10-17T01:11:32.000Z,283.71
2022-10-17T01:12:59.000Z,283.71
2022-10-17T01:15:05.000Z,283.71
2022-10-17T01:16:31.000Z,283.77
2022-10-17T01:18:37.000Z,283.77
2022-10-17T01:20:04.000Z,283.77
2022-10-17T01:22:10.000Z,283.77
2022-10-17T01:23:37.000Z,283.71
2022-10-17T01:25:43.000Z,283.71
2022-10-17T01:27:09.000Z,283.71
2022-10-17T01:29:15.000Z,283.71
2022-10-17T01:30:42.000Z,283.65
2022-10-17T01:32:48.000Z,283.65
2022-10-17T01:34:14.000Z,283.65
2022-10-17T01:36:21.000Z,283.59
2022-10-17T01:37:47.000Z,283.52
2022-10-17T01:39:53.000Z,283.46
2022-10-17T01:41:20.000Z,283.52
2022-10-17T01:43:26.000Z,283.46
2022-10-17T01:46:17.000Z,283.46
2022-10-17T01:47:44.000Z,283.46
2022-10-17T01:49:50.000Z,283.59
2022-10-17T01:51:16.000Z,283.59
2022-10-17T01:53:22.000Z,283.52
2022-10-17T01:54:49.000Z,283.52
2022-10-17T01:56:55.000Z,283.46
2022-10-17T01:58:21.000Z,283.46
2022-10-17T02:00:27.000Z,283.4
2022-10-17T02:01:54.000Z,283.4
2022-10-17T02:04:00.000Z,283.34
2022-10-17T02:05:27.000Z,283.4
2022-10-17T02:07:33.000Z,283.46
2022-10-17T02:08:59.000Z,283.4
2022-10-17T02:11:05.000Z,283.46
2022-10-17T02:12:32.000Z,283.46
2022-10-17T02:14:38.000Z,283.52
2022-10-17T02:16:04.000Z,283.59
2022-10-17T02:18:10.000Z,283.59
2022-10-17T02:19:37.000Z,283.59
2022-10-17T02:21:43.000Z,283.59
2022-10-17T02:24:34.000Z,283.71
2022-10-17T02:26:01.000Z,283.65
2022-10-17T02:28:07.000Z,283.65
2022-10-17T02:29:33.000Z,283.71
2022-10-17T02:31:39.000Z,283.71
2022-10-17T02:33:06.000Z,283.71
2022-10-17T02:35:12.000Z,283.65
2022-10-17T02:36:39.000Z,283.77
2022-10-17T02:38:45.000Z,283.77
2022-10-17T02:40:11.000Z,283.84
2022-10-17T02:42:17.000Z,283.84
2022-10-17T02:43:44.000Z,283.84
2022-10-17T02:45:50.000Z,283.71
2022-10-17T02:47:17.000Z,283.71
2022-10-17T02:49:23.000Z,283.77
2022-10-17T02:50:49.000Z,283.71
2022-10-17T02:52:55.000Z,283.65
2022-10-17T02:54:22.000Z,283.65
2022-10-17T02:56:28.000Z,283.71
2022-10-17T02:57:55.000Z,283.65
2022-10-17T03:00:01.000Z,283.59
2022-10-17T03:02:52.000Z,283.52
2022-10-17T03:04:18.000Z,283.46
2022-10-17T03:06:24.000Z,283.46
2022-10-17T03:07:51.000Z,283.52
2022-10-17T03:09:57.000Z,283.52
2022-10-17T03:11:24.000Z,283.52
2022-10-17T03:13:30.000Z,283.65
2022-10-17T03:15:02.000Z,283.59
2022-10-17T03:17:08.000Z,283.52
2022-10-17T03:18:34.000Z,283.52
2022-10-17T03:20:40.000Z,283.46
2022-10-17T03:22:07.000Z,283.46
2022-10-17T03:24:13.000Z,283.46
2022-10-17T03:25:39.000Z,283.46
2022-10-17T03:27:45.000Z,283.52
2022-10-17T03:29:12.000Z,283.52
2022-10-17T03:31:18.000Z,283.52
2022-10-17T03:32:45.000Z,283.52
2022-10-17T03:34:51.000Z,283.46
2022-10-17T03:36:17.000Z,283.52
2022-10-17T03:38:23.000Z,283.46
2022-10-17T03:41:15.000Z,283.46
2022-10-17T03:42:41.000Z,283.46
2022-10-17T03:44:47.000Z,283.4
2022-10-17T03:48:20.000Z,283.46
2022-10-17T03:49:46.000Z,283.46
2022-10-17T03:51:52.000Z,283.4
2022-10-17T03:53:19.000Z,283.46
2022-10-17T03:55:25.000Z,283.52
2022-10-17T03:56:52.000Z,283.52
2022-10-17T03:58:58.000Z,283.59
2022-10-17T04:00:24.000Z,283.59
2022-10-17T04:02:31.000Z,283.52
2022-10-17T04:03:57.000Z,283.46
2022-10-17T04:06:03.000Z,283.46
2022-10-17T04:07:30.000Z,283.52
2022-10-17T04:09:36.000Z,283.52
2022-10-17T04:11:02.000Z,283.46
2022-10-17T04:13:08.000Z,283.46
2022-10-17T04:14:35.000Z,283.46
2022-10-17T04:16:41.000Z,283.46
2022-10-17T04:19:32.000Z,283.46
2022-10-17T04:20:58.000Z,283.4
2022-10-17T04:23:05.000Z,283.4
2022-10-17T04:24:31.000Z,283.46
2022-10-17T04:26:37.000Z,283.46
2022-10-17T04:28:04.000Z,283.46
2022-10-17T04:30:10.000Z,283.4
2022-10-17T04:31:36.000Z,283.52
2022-10-17T04:33:42.000Z,283.46
2022-10-17T04:35:09.000Z,283.46
2022-10-17T04:37:15.000Z,283.4
2022-10-17T04:38:42.000Z,283.4
2022-10-17T04:40:48.000Z,283.46
2022-10-17T04:42:14.000Z,283.52
2022-10-17T04:44:20.000Z,283.52
2022-10-17T04:45:47.000Z,283.46
2022-10-17T04:47:53.000Z,283.46
2022-10-17T04:49:19.000Z,283.52
2022-10-17T04:51:25.000Z,283.46
2022-10-17T04:52:52.000Z,283.46
2022-10-17T04:54:58.000Z,283.4
2022-10-17T04:57:49.000Z,283.34
2022-10-17T04:59:16.000Z,283.34
2022-10-17T05:01:22.000Z,283.34
2022-10-17T05:02:48.000Z,283.34
2022-10-17T05:04:54.000Z,283.4
2022-10-17T05:06:21.000Z,283.34
2022-10-17T05:08:27.000Z,283.34
2022-10-17T05:09:54.000Z,283.34
2022-10-17T05:12:00.000Z,283.34
2022-10-17T05:13:31.000Z,283.27
2022-10-17T05:15:37.000Z,283.27
2022-10-17T05:17:03.000Z,283.27
2022-10-17T05:19:09.000Z,283.34
2022-10-17T05:20:36.000Z,283.34
2022-10-17T05:22:42.000Z,283.34
2022-10-17T05:24:09.000Z,283.34
2022-10-17T05:26:15.000Z,283.34
2022-10-17T05:27:41.000Z,283.34
2022-10-17T05:29:47.000Z,283.4
2022-10-17T05:31:14.000Z,283.34
2022-10-17T05:33:20.000Z,283.34
2022-10-17T05:36:11.000Z,283.4
2022-10-17T05:37:37.000Z,283.34
2022-10-17T05:39:43.000Z,283.34
2022-10-17T05:41:16.000Z,283.46
2022-10-17T05:43:22.000Z,283.46
2022-10-17T05:44:48.000Z,283.4
2022-10-17T05:46:54.000Z,283.4
2022-10-17T05:48:21.000Z,283.4
2022-10-17T05:50:27.000Z,283.46
2022-10-17T05:51:53.000Z,283.4
2022-10-17T05:53:59.000Z,283.52
2022-10-17T05:55:26.000Z,283.59
2022-10-17T05:57:32.000Z,283.52
2022-10-17T05:58:59.000Z,283.52
2022-10-17T06:01:05.000Z,283.52
2022-10-17T06:02:37.000Z,283.52
2022-10-17T06:04:43.000Z,283.52
2022-10-17T06:06:10.000Z,283.52
2022-10-17T06:08:16.000Z,283.59
2022-10-17T06:11:49.000Z,283.59
2022-10-17T06:14:41.000Z,283.59
2022-10-17T06:16:07.000Z,283.59
2022-10-17T06:18:13.000Z,283.71
2022-10-17T06:19:40.000Z,283.71
2022-10-17T06:21:46.000Z,283.65
2022-10-17T06:23:12.000Z,283.59
2022-10-17T06:25:18.000Z,283.65
2022-10-17T06:26:45.000Z,283.71
2022-10-17T06:28:51.000Z,283.84
2022-10-17T06:30:17.000Z,283.9
2022-10-17T06:32:23.000Z,284.02
2022-10-17T06:33:50.000Z,284.02
2022-10-17T06:35:56.000Z,284.02
2022-10-17T06:37:23.000Z,284.09
2022-10-17T06:39:29.000Z,284.21
2022-10-17T06:40:55.000Z,284.27
2022-10-17T06:43:01.000Z,284.27
2022-10-17T06:44:28.000Z,284.46
2022-10-17T06:46:34.000Z,284.46
2022-10-17T06:48:01.000Z,284.46
2022-10-17T06:50:07.000Z,284.65
2022-10-17T06:52:58.000Z,284.77
2022-10-17T06:54:24.000Z,284.77
2022-10-17T06:56:31.000Z,284.96
2022-10-17T06:57:57.000Z,285.02
2022-10-17T07:00:03.000Z,285.09
2022-10-17T07:01:30.000Z,285.09
2022-10-17T07:03:36.000Z,285.21
2022-10-17T07:05:02.000Z,285.4
2022-10-17T07:07:08.000Z,285.4
2022-10-17T07:08:35.000Z,285.46
2022-10-17T07:10:41.000Z,285.46
2022-10-17T07:12:07.000Z,285.46
2022-10-17T07:14:13.000Z,285.52
2022-10-17T07:15:40.000Z,285.59
2022-10-17T07:17:46.000Z,285.65
2022-10-17T07:19:13.000Z,285.77
2022-10-17T07:21:19.000Z,285.84
2022-10-17T07:22:46.000Z,285.96
2022-10-17T07:24:52.000Z,286.09
2022-10-17T07:26:18.000Z,286.09
2022-10-17T07:28:24.000Z,286.09
2022-10-17T07:31:16.000Z,286.02
2022-10-17T07:32:42.000Z,286.15
2022-10-17T07:34:48.000Z,286.21
2022-10-17T07:36:15.000Z,286.27
2022-10-17T07:38:21.000Z,286.34
2022-10-17T07:39:47.000Z,286.4
2022-10-17T07:41:54.000Z,286.52
2022-10-17T07:43:20.000Z,286.71
2022-10-17T07:45:26.000Z,286.71
2022-10-17T07:46:53.000Z,286.77
2022-10-17T07:48:59.000Z,287.09
2022-10-17T07:50:25.000Z,287.15
2022-10-17T07:52:31.000Z,287.15
2022-10-17T07:53:58.000Z,287.27
2022-10-17T07:56:04.000Z,287.4
2022-10-17T07:57:30.000Z,287.4
2022-10-17T07:59:36.000Z,287.46
2022-10-17T08:01:03.000Z,287.59
2022-10-17T08:03:13.000Z,287.59
2022-10-17T08:04:39.000Z,287.71
2022-10-17T08:06:46.000Z,287.71
2022-10-17T08:09:42.000Z,287.9
2022-10-17T08:11:08.000Z,287.96
2022-10-17T08:13:14.000Z,287.9
2022-10-17T08:14:41.000Z,288.02
2022-10-17T08:16:47.000Z,288.02
2022-10-17T08:18:13.000Z,288.15
2022-10-17T08:20:20.000Z,288.21
2022-10-17T08:21:46.000Z,288.21
2022-10-17T08:23:52.000Z,288.4
2022-10-17T08:25:19.000Z,288.52
2022-10-17T08:27:25.000Z,288.52
2022-10-17T08:28:51.000Z,288.59
2022-10-17T08:30:58.000Z,288.65
2022-10-17T08:32:24.000Z,288.71
2022-10-17T08:34:31.000Z,288.84
2022-10-17T08:35:57.000Z,288.84
2022-10-17T08:38:03.000Z,289.02
2022-10-17T08:39:30.000Z,289.09
2022-10-17T08:41:36.000Z,289.15
2022-10-17T08:43:02.000Z,289.15
2022-10-17T08:45:08.000Z,289.21
2022-10-17T08:48:00.000Z,289.34
2022-10-17T08:49:26.000Z,289.52
2022-10-17T08:51:32.000Z,289.4
2022-10-17T08:52:59.000Z,289.46
2022-10-17T08:55:05.000Z,289.52
2022-10-17T08:56:31.000Z,289.59
2022-10-17T08:58:52.000Z,289.65
2022-10-17T09:00:19.000Z,289.65
2022-10-17T09:02:25.000Z,289.71
2022-10-17T09:03:51.000Z,289.77
2022-10-17T09:05:57.000Z,289.77
2022-10-17T09:07:24.000Z,289.84
2022-10-17T09:09:30.000Z,289.9
2022-10-17T09:10:57.000Z,289.96
2022-10-17T09:13:03.000Z,290.02
2022-10-17T09:14:32.000Z,290.02
2022-10-17T09:16:38.000Z,290.15
2022-10-17T09:18:04.000Z,290.21
2022-10-17T09:20:11.000Z,290.21
2022-10-17T09:21:37.000Z,290.27
2022-10-17T09:23:44.000Z,290.34
2022-10-17T09:26:35.000Z,290.4
2022-10-17T09:28:01.000Z,290.46
2022-10-17T09:30:07.000Z,290.46
2022-10-17T09:31:57.000Z,290.52
2022-10-17T09:34:03.000Z,290.59
2022-10-17T09:35:30.000Z,290.59
2022-10-17T09:37:36.000Z,290.65
2022-10-17T09:39:03.000Z,290.65
2022-10-17T09:41:09.000Z,290.65
2022-10-17T09:43:07.000Z,290.71
2022-10-17T09:45:13.000Z,290.77
2022-10-17T09:46:40.000Z,290.84
2022-10-17T09:48:46.000Z,290.84
2022-10-17T09:50:17.000Z,290.9
2022-10-17T09:52:23.000Z,290.9
2022-10-17T09:53:50.000Z,290.96
2022-10-17T09:55:56.000Z,290.9
2022-10-17T09:57:23.000Z,291.02
2022-10-17T09:59:29.000Z,291.02
2022-10-17T10:00:55.000Z,291.02
2022-10-17T10:03:01.000Z,291.02
2022-10-17T10:05:53.000Z,291.02
2022-10-17T10:07:19.000Z,291.09
2022-10-17T10:09:32.000Z,291.15
2022-10-17T10:11:03.000Z,291.15
2022-10-17T10:13:09.000Z,291.21
2022-10-17T10:14:36.000Z,291.21
2022-10-17T10:16:42.000Z,291.27
2022-10-17T10:18:09.000Z,291.27
2022-10-17T10:20:15.000Z,291.34
2022-10-17T10:21:41.000Z,291.34
2022-10-17T10:23:50.000Z,291.34
2022-10-17T10:25:17.000Z,291.4
2022-10-17T10:27:23.000Z,291.52
2022-10-17T10:28:49.000Z,291.65
2022-10-17T10:30:56.000Z,292.21
2022-10-17T10:32:22.000Z,292.09
2022-10-17T10:34:28.000Z,292.15
2022-10-17T10:35:55.000Z,292.02
2022-10-17T10:38:01.000Z,292.09
2022-10-17T10:39:27.000Z,292.02
2022-10-17T10:41:33.000Z,292.15
2022-10-17T10:44:25.000Z,292.15
2022-10-17T10:45:51.000Z,292.09
2022-10-17T10:47:57.000Z,292.27
2022-10-17T10:49:24.000Z,292.4
2022-10-17T10:51:30.000Z,292.34
2022-10-17T10:52:56.000Z,292.27
2022-10-17T10:55:02.000Z,292.4
2022-10-17T10:56:29.000Z,292.4
2022-10-17T10:58:35.000Z,292.71
2022-10-17T11:00:06.000Z,292.77
2022-10-17T11:02:12.000Z,292.65
2022-10-17T11:05:45.000Z,293.02
2022-10-17T11:07:11.000Z,292.84
2022-10-17T11:09:17.000Z,293.27
2022-10-17T11:10:44.000Z,293.09
2022-10-17T11:12:50.000Z,293.27
2022-10-17T11:14:17.000Z,293.15
2022-10-17T11:16:23.000Z,293.02
2022-10-17T11:17:49.000Z,293.02
2022-10-17T11:19:55.000Z,293.34
2022-10-17T11:22:47.000Z,293.34
2022-10-17T11:24:13.000Z,293.52
2022-10-17T11:26:19.000Z,293.52
2022-10-17T11:27:46.000Z,293.34
2022-10-17T11:29:52.000Z,293.34
2022-10-17T11:31:18.000Z,293.34
2022-10-17T11:33:25.000Z,293.52
2022-10-17T11:34:51.000Z,293.65
2022-10-17T11:36:57.000Z,293.84
2022-10-17T11:38:24.000Z,293.65
2022-10-17T11:40:30.000Z,293.52
2022-10-17T11:41:56.000Z,293.52
2022-10-17T11:44:07.000Z,293.59
2022-10-17T11:45:33.000Z,293.96
2022-10-17T11:47:40.000Z,293.84
2022-10-17T11:49:06.000Z,293.59
2022-10-17T11:53:09.000Z,293.52
2022-10-17T11:55:15.000Z,293.59
2022-10-17T11:56:42.000Z,293.52
2022-10-17T11:58:49.000Z,293.71
2022-10-17T12:01:40.000Z,293.96
2022-10-17T12:03:06.000Z,294.02
2022-10-17T12:05:12.000Z,293.9
2022-10-17T12:06:39.000Z,294.15
2022-10-17T12:08:45.000Z,294.46
2022-10-17T12:10:12.000Z,294.52
2022-10-17T12:12:18.000Z,294.21
2022-10-17T12:13:44.000Z,294.15
2022-10-17T12:15:51.000Z,293.9
2022-10-17T12:17:17.000Z,293.96
2022-10-17T12:19:23.000Z,293.84
2022-10-17T12:20:50.000Z,294.02
2022-10-17T12:22:56.000Z,294.15
2022-10-17T12:24:23.000Z,294.02
2022-10-17T12:26:29.000Z,294.09
2022-10-17T12:27:55.000Z,294.09
2022-10-17T12:30:01.000Z,294.21
2022-10-17T12:31:28.000Z,294.21
2022-10-17T12:33:38.000Z,294.21
2022-10-17T12:35:04.000Z,294.34
2022-10-17T12:37:11.000Z,294.27
2022-10-17T12:40:02.000Z,294.4
2022-10-17T12:41:28.000Z,294.34
2022-10-17T12:43:34.000Z,294.4
2022-10-17T12:45:05.000Z,294.4
2022-10-17T12:47:12.000Z,294.34
2022-10-17T12:48:38.000Z,294.46
2022-10-17T12:50:44.000Z,294.21
2022-10-17T12:52:11.000Z,294.34
2022-10-17T12:54:17.000Z,294.4
2022-10-17T12:55:43.000Z,294.46
2022-10-17T12:57:50.000Z,294.46
2022-10-17T12:59:16.000Z,294.34
2022-10-17T13:01:22.000Z,294.21
2022-10-17T13:02:49.000Z,294.27
2022-10-17T13:04:55.000Z,294.46
2022-10-17T13:06:22.000Z,294.52
2022-10-17T13:08:28.000Z,294.46
2022-10-17T13:09:55.000Z,294.34
2022-10-17T13:12:01.000Z,294.27
2022-10-17T13:13:27.000Z,294.27
2022-10-17T13:15:34.000Z,294.46
2022-10-17T13:18:25.000Z,294.46
2022-10-17T13:19:51.000Z,294.4
2022-10-17T13:21:57.000Z,294.46
2022-10-17T13:23:31.000Z,294.46
2022-10-17T13:25:37.000Z,294.71
2022-10-17T13:27:04.000Z,294.65
2022-10-17T13:29:10.000Z,294.71
2022-10-17T13:30:36.000Z,294.84
2022-10-17T13:32:43.000Z,294.77
2022-10-17T13:34:09.000Z,294.77
2022-10-17T13:36:15.000Z,294.71
2022-10-17T13:37:42.000Z,294.77
2022-10-17T13:39:48.000Z,294.71
2022-10-17T13:41:22.000Z,294.71
2022-10-17T13:43:40.000Z,294.71
2022-10-17T13:45:07.000Z,294.65
2022-10-17T13:47:13.000Z,294.65
2022-10-17T13:48:39.000Z,294.59
2022-10-17T13:50:45.000Z,294.65
2022-10-17T13:52:12.000Z,294.71
2022-10-17T13:54:18.000Z,294.71
2022-10-17T13:57:09.000Z,294.52
2022-10-17T13:58:36.000Z,294.46
2022-10-17T14:00:42.000Z,294.59
2022-10-17T14:02:09.000Z,294.59
2022-10-17T14:04:15.000Z,294.59
2022-10-17T14:05:45.000Z,294.59
2022-10-17T14:07:51.000Z,294.46
2022-10-17T14:09:36.000Z,294.34
2022-10-17T14:11:42.000Z,294.27
2022-10-17T14:13:09.000Z,294.27
2022-10-17T14:15:15.000Z,294.21
2022-10-17T14:16:42.000Z,294.15
2022-10-17T14:18:48.000Z,294.09
2022-10-17T14:20:14.000Z,294.15
2022-10-17T14:23:01.000Z,294.21
2022-10-17T14:24:47.000Z,294.27
2022-10-17T14:26:53.000Z,294.27
2022-10-17T14:28:20.000Z,294.34
2022-10-17T14:30:26.000Z,294.27
2022-10-17T14:32:19.000Z,294.4
2022-10-17T14:34:26.000Z,294.46
2022-10-17T14:37:17.000Z,294.59
2022-10-17T14:38:44.000Z,294.52
2022-10-17T14:40:50.000Z,294.59
2022-10-17T14:42:16.000Z,294.52
2022-10-17T14:44:22.000Z,294.59
2022-10-17T14:45:49.000Z,294.59
2022-10-17T14:47:55.000Z,294.59
2022-10-17T14:49:21.000Z,294.59
2022-10-17T14:51:29.000Z,294.52
2022-10-17T14:53:15.000Z,294.52
2022-10-17T14:55:21.000Z,294.52
2022-10-17T14:56:48.000Z,294.46
2022-10-17T14:58:54.000Z,294.46
2022-10-17T15:00:20.000Z,294.4
2022-10-17T15:02:26.000Z,294.4
2022-10-17T15:03:54.000Z,294.34
2022-10-17T15:06:00.000Z,294.34
2022-10-17T15:07:26.000Z,294.27
2022-10-17T15:09:33.000Z,294.21
2022-10-17T15:10:59.000Z,294.15
2022-10-17T15:13:05.000Z,294.09
2022-10-17T15:16:20.000Z,294.02
2022-10-17T15:17:46.000Z,293.96
2022-10-17T15:19:52.000Z,293.9
2022-10-17T15:21:19.000Z,293.9
2022-10-17T15:23:41.000Z,293.84
2022-10-17T15:25:07.000Z,293.84
2022-10-17T15:27:14.000Z,293.65
2022-10-17T15:28:40.000Z,293.71
2022-10-17T15:30:46.000Z,293.59
2022-10-17T15:32:13.000Z,293.59
2022-10-17T15:34:19.000Z,293.46
2022-10-17T15:35:45.000Z,293.4
2022-10-17T15:37:52.000Z,293.34
2022-10-17T15:39:18.000Z,293.27
2022-10-17T15:41:25.000Z,293.21
2022-10-17T15:42:51.000Z,293.15
2022-10-17T15:44:57.000Z,293.09
2022-10-17T15:46:24.000Z,293.02
2022-10-17T15:48:30.000Z,292.9
2022-10-17T15:49:57.000Z,292.9
2022-10-17T15:52:03.000Z,292.71
2022-10-17T15:54:54.000Z,292.71
2022-10-17T15:56:25.000Z,292.84
2022-10-17T15:58:31.000Z,292.84
2022-10-17T15:59:58.000Z,292.84
2022-10-17T16:02:04.000Z,292.65
2022-10-17T16:03:30.000Z,292.59
2022-10-17T16:05:36.000Z,292.52
2022-10-17T16:07:03.000Z,292.46
2022-10-17T16:09:09.000Z,292.4
2022-10-17T16:10:36.000Z,292.34
2022-10-17T16:12:42.000Z,292.27
2022-10-17T16:14:08.000Z,292.21
2022-10-17T16:16:15.000Z,292.15
2022-10-17T16:17:41.000Z,292.09
2022-10-17T16:19:47.000Z,292.02
2022-10-17T16:21:14.000Z,291.96
2022-10-17T16:23:20.000Z,291.9
2022-10-17T16:24:46.000Z,291.84
2022-10-17T16:26:53.000Z,291.84
2022-10-17T16:28:19.000Z,291.84
2022-10-17T16:30:25.000Z,291.77
2022-10-17T16:33:16.000Z,291.71
2022-10-17T16:34:43.000Z,291.71
2022-10-17T16:36:49.000Z,291.71
2022-10-17T16:38:15.000Z,291.71
2022-10-17T16:40:21.000Z,291.71
2022-10-17T16:41:48.000Z,291.65
2022-10-17T16:44:00.000Z,291.59
2022-10-17T16:45:26.000Z,291.52
2022-10-17T16:47:32.000Z,291.4
2022-10-17T16:48:59.000Z,291.27
2022-10-17T16:51:05.000Z,291.21
2022-10-17T16:52:31.000Z,291.15
2022-10-17T16:54:38.000Z,291.09
2022-10-17T16:56:04.000Z,290.96
2022-10-17T16:58:10.000Z,290.96
2022-10-17T16:59:37.000Z,290.96
2022-10-17T17:01:43.000Z,290.9
2022-10-17T17:03:09.000Z,291.02
2022-10-17T17:05:15.000Z,291.09
2022-10-17T17:08:49.000Z,290.96
2022-10-17T17:11:40.000Z,290.84
2022-10-17T17:13:07.000Z,290.84
2022-10-17T17:15:13.000Z,290.9
2022-10-17T17:16:39.000Z,290.96
2022-10-17T17:18:45.000Z,290.96
2022-10-17T17:20:12.000Z,290.96
2022-10-17T17:22:18.000Z,291.02
2022-10-17T17:23:45.000Z,291.02
2022-10-17T17:25:51.000Z,290.96
2022-10-17T17:27:17.000Z,290.96
2022-10-17T17:29:23.000Z,291.02
2022-10-17T17:30:50.000Z,291.02
2022-10-17T17:32:56.000Z,291.09
2022-10-17T17:34:22.000Z,291.02
2022-10-17T17:36:29.000Z,290.96
2022-10-17T17:37:55.000Z,290.96
2022-10-17T17:40:01.000Z,290.96
2022-10-17T17:41:28.000Z,290.96
2022-10-17T17:43:34.000Z,291.09
2022-10-17T17:45:00.000Z,291.15
2022-10-17T17:47:07.000Z,291.15
2022-10-17T17:49:58.000Z,291.09
2022-10-17T17:51:24.000Z,291.09
2022-10-17T17:53:33.000Z,290.9
2022-10-17T17:55:00.000Z,290.84
2022-10-17T17:57:06.000Z,290.84
2022-10-17T17:58:32.000Z,290.84
2022-10-17T18:00:38.000Z,290.77
2022-10-17T18:02:05.000Z,290.71
2022-10-17T18:04:11.000Z,290.65
2022-10-17T18:05:37.000Z,290.65
2022-10-17T18:07:44.000Z,290.52
2022-10-17T18:09:10.000Z,290.46
2022-10-17T18:11:16.000Z,290.46
2022-10-17T18:12:46.000Z,290.52
2022-10-17T18:14:52.000Z,290.52
2022-10-17T18:16:19.000Z,290.46
2022-10-17T18:18:25.000Z,290.34
2022-10-17T18:19:51.000Z,290.34
2022-10-17T18:21:57.000Z,290.27
2022-10-17T18:23:24.000Z,290.21
2022-10-17T18:25:30.000Z,290.02
2022-10-17T18:28:21.000Z,289.96
2022-10-17T18:29:48.000Z,290.09
2022-10-17T18:31:54.000Z,290.21
2022-10-17T18:33:21.000Z,290.34
2022-10-17T18:35:27.000Z,290.34
2022-10-17T18:36:53.000Z,290.34
2022-10-17T18:38:59.000Z,290.21
2022-10-17T18:40:26.000Z,290.15
2022-10-17T18:42:32.000Z,290.09
2022-10-17T18:43:59.000Z,290.09
2022-10-17T18:46:05.000Z,290.02
2022-10-17T18:47:39.000Z,290.02
2022-10-17T18:49:45.000Z,289.96
2022-10-17T18:51:11.000Z,289.9
2022-10-17T18:53:17.000Z,289.77
2022-10-17T18:54:44.000Z,289.84
2022-10-17T18:56:50.000Z,289.9
2022-10-17T18:58:16.000Z,289.9
2022-10-17T19:00:23.000Z,289.84
2022-10-17T19:01:49.000Z,289.77
2022-10-17T19:03:55.000Z,289.71
2022-10-17T19:06:47.000Z,289.71
2022-10-17T19:08:13.000Z,289.71
2022-10-17T19:10:19.000Z,289.71
2022-10-17T19:11:46.000Z,289.71
2022-10-17T19:13:52.000Z,289.71
2022-10-17T19:15:18.000Z,289.65
2022-10-17T19:17:29.000Z,289.71
2022-10-17T19:18:56.000Z,289.71
2022-10-17T19:21:02.000Z,289.77
2022-10-17T19:22:29.000Z,289.9
2022-10-17T19:24:35.000Z,289.9
2022-10-17T19:26:02.000Z,289.84
2022-10-17T19:28:08.000Z,289.84
2022-10-17T19:29:34.000Z,289.84
2022-10-17T19:31:40.000Z,289.84
2022-10-17T19:33:07.000Z,289.84
2022-10-17T19:35:13.000Z,289.77
2022-10-17T19:36:40.000Z,289.84
2022-10-17T19:38:46.000Z,289.77
2022-10-17T19:40:12.000Z,289.71
2022-10-17T19:42:18.000Z,289.65
2022-10-17T19:45:09.000Z,289.52
2022-10-17T19:46:36.000Z,289.46
2022-10-17T19:48:42.000Z,289.46
2022-10-17T19:50:09.000Z,289.46
2022-10-17T19:52:15.000Z,289.4
2022-10-17T19:53:41.000Z,289.4
2022-10-17T19:55:47.000Z,289.34
2022-10-17T19:57:14.000Z,289.27
2022-10-17T19:59:20.000Z,289.21
2022-10-17T20:00:46.000Z,289.09
2022-10-17T20:02:52.000Z,289.02
2022-10-17T20:04:19.000Z,289.02
2022-10-17T20:06:25.000Z,289.02
2022-10-17T20:07:51.000Z,289.02
2022-10-17T20:09:58.000Z,288.9
2022-10-17T20:11:24.000Z,288.84
2022-10-17T20:13:31.000Z,288.77
2022-10-17T20:14:57.000Z,288.71
2022-10-17T20:17:03.000Z,288.77
2022-10-17T20:18:30.000Z,288.71
2022-10-17T20:20:36.000Z,288.71
2022-10-17T20:23:27.000Z,288.77
2022-10-17T20:24:53.000Z,288.71
2022-10-17T20:26:59.000Z,288.59
2022-10-17T20:28:26.000Z,288.59
2022-10-17T20:30:32.000Z,288.46
2022-10-17T20:31:59.000Z,288.4
2022-10-17T20:34:05.000Z,288.34
2022-10-17T20:35:31.000Z,288.34
2022-10-17T20:37:37.000Z,288.34
2022-10-17T20:39:07.000Z,288.4
2022-10-17T20:41:13.000Z,288.34
2022-10-17T20:42:39.000Z,288.4
2022-10-17T20:44:45.000Z,288.34
2022-10-17T20:46:12.000Z,288.27
2022-10-17T20:48:40.000Z,288.27
2022-10-17T20:50:06.000Z,288.27
2022-10-17T20:52:12.000Z,288.21
2022-10-17T20:53:39.000Z,288.21
2022-10-17T20:55:45.000Z,288.21
2022-10-17T20:57:12.000Z,288.27
2022-10-17T20:59:18.000Z,288.27
2022-10-17T21:02:09.000Z,288.34
2022-10-17T21:03:36.000Z,288.34
2022-10-17T21:05:47.000Z,288.27
2022-10-17T21:07:14.000Z,288.27
2022-10-17T21:09:20.000Z,288.21
2022-10-17T21:10:47.000Z,288.15
2022-10-17T21:12:53.000Z,288.09
2022-10-17T21:14:20.000Z,288.09
2022-10-17T21:16:26.000Z,288.09
2022-10-17T21:17:52.000Z,288.09
2022-10-17T21:19:58.000Z,288.02
2022-10-17T21:21:25.000Z,288.02
2022-10-17T21:23:31.000Z,288.09
2022-10-17T21:24:57.000Z,288.02
2022-10-17T21:27:04.000Z,288.09
2022-10-17T21:28:30.000Z,288.09
2022-10-17T21:30:36.000Z,288.09
2022-10-17T21:32:03.000Z,288.15
2022-10-17T21:34:29.000Z,288.21
2022-10-17T21:35:55.000Z,288.21
2022-10-17T21:38:01.000Z,288.09
2022-10-17T21:40:52.000Z,288.02
2022-10-17T21:42:20.000Z,288.02
2022-10-17T21:44:26.000Z,288.02
2022-10-17T21:45:53.000Z,287.96
2022-10-17T21:47:59.000Z,288.02
2022-10-17T21:49:37.000Z,287.96
2022-10-17T21:51:43.000Z,287.96
2022-10-17T21:53:09.000Z,288.09
2022-10-17T21:55:15.000Z,288.02
2022-10-17T21:56:42.000Z,288.09
2022-10-17T21:58:48.000Z,288.09
2022-10-17T22:00:14.000Z,288.02
2022-10-17T22:02:21.000Z,288.02
2022-10-17T22:03:47.000Z,288.02
2022-10-17T22:05:53.000Z,287.96
2022-10-17T22:07:42.000Z,287.9
2022-10-17T22:09:49.000Z,287.9
2022-10-17T22:11:15.000Z,287.9
2022-10-17T22:13:21.000Z,287.9
2022-10-17T22:14:48.000Z,287.96
2022-10-17T22:16:54.000Z,287.96
2022-10-17T22:19:45.000Z,287.96
2022-10-17T22:21:12.000Z,288.02
2022-10-17T22:23:18.000Z,288.02
2022-10-17T22:24:44.000Z,288.02
2022-10-17T22:26:50.000Z,287.96
2022-10-17T22:28:17.000Z,287.9
2022-10-17T22:30:23.000Z,287.84
2022-10-17T22:31:49.000Z,287.9
2022-10-17T22:33:55.000Z,287.9
2022-10-17T22:35:22.000Z,287.96
2022-10-17T22:37:28.000Z,287.96
2022-10-17T22:38:55.000Z,287.96
2022-10-17T22:41:01.000Z,287.96
2022-10-17T22:42:28.000Z,287.96
2022-10-17T22:44:34.000Z,287.9
2022-10-17T22:46:00.000Z,287.9
2022-10-17T22:48:06.000Z,287.9
2022-10-17T22:49:33.000Z,287.9
2022-10-17T22:51:39.000Z,287.96
2022-10-17T22:53:05.000Z,287.9
2022-10-17T22:55:11.000Z,287.84
2022-10-17T22:58:02.000Z,287.84
2022-10-17T22:59:29.000Z,287.84
2022-10-17T23:01:35.000Z,287.84
2022-10-17T23:03:01.000Z,287.84
2022-10-17T23:05:08.000Z,287.84
2022-10-17T23:06:34.000Z,287.9
2022-10-17T23:08:40.000Z,287.9